sensor_id;sensor_type;location;lat;lon;timestamp;P1;durP1;ratioP1;P2;durP2;ratioP2
7181;SDS011;3632;42.724;23.298;2023-05-16T00:00:11;14.50;;;12.97;;
7181;SDS011;3632;42.724;23.298;2023-05-16T00:02:41;17.60;;;13.03;;
7181;SDS011;3632;42.724;23.298;2023-05-16T00:05:08;12.70;;;11.40;;
7181;SDS011;3632;42.724;23.298;2023-05-16T00:07:40;17.53;;;12.70;;
7181;SDS011;3632;42.724;23.298;2023-05-16T00:10:09;13.47;;;12.07;;
7181;SDS011;3632;42.724;23.298;2023-05-16T00:12:37;14.83;;;13.30;;
7181;SDS011;3632;42.724;23.298;2023-05-16T00:15:06;14.30;;;12.80;;
7181;SDS011;3632;42.724;23.298;2023-05-16T00:17:37;14.27;;;12.87;;
7181;SDS011;3632;42.724;23.298;2023-05-16T00:20:05;15.57;;;13.07;;
7181;SDS011;3632;42.724;23.298;2023-05-16T00:22:36;14.00;;;12.40;;
7181;SDS011;3632;42.724;23.298;2023-05-16T00:25:03;16.10;;;12.83;;
7181;SDS011;3632;42.724;23.298;2023-05-16T00:27:32;13.90;;;12.47;;
7181;SDS011;3632;42.724;23.298;2023-05-16T00:30:00;14.90;;;12.97;;
7181;SDS011;3632;42.724;23.298;2023-05-16T00:32:32;13.53;;;12.23;;
7181;SDS011;3632;42.724;23.298;2023-05-16T00:34:59;15.23;;;12.43;;
7181;SDS011;3632;42.724;23.298;2023-05-16T00:37:26;13.97;;;12.47;;
7181;SDS011;3632;42.724;23.298;2023-05-16T00:39:53;13.87;;;12.50;;
7181;SDS011;3632;42.724;23.298;2023-05-16T00:42:20;14.37;;;12.33;;
7181;SDS011;3632;42.724;23.298;2023-05-16T00:44:47;14.90;;;12.87;;
7181;SDS011;3632;42.724;23.298;2023-05-16T00:47:16;13.87;;;12.47;;
7181;SDS011;3632;42.724;23.298;2023-05-16T00:49:45;15.60;;;13.43;;
7181;SDS011;3632;42.724;23.298;2023-05-16T00:52:14;14.10;;;12.57;;
7181;SDS011;3632;42.724;23.298;2023-05-16T00:54:42;15.10;;;13.50;;
7181;SDS011;3632;42.724;23.298;2023-05-16T00:57:09;13.90;;;12.60;;
7181;SDS011;3632;42.724;23.298;2023-05-16T00:59:37;14.47;;;12.93;;
7181;SDS011;3632;42.724;23.298;2023-05-16T01:02:04;13.63;;;12.33;;
7181;SDS011;3632;42.724;23.298;2023-05-16T01:04:31;13.97;;;12.53;;
7181;SDS011;3632;42.724;23.298;2023-05-16T01:07:00;13.83;;;12.43;;
7181;SDS011;3632;42.724;23.298;2023-05-16T01:09:28;14.10;;;12.60;;
7181;SDS011;3632;42.724;23.298;2023-05-16T01:11:57;15.10;;;13.70;;
7181;SDS011;3632;42.724;23.298;2023-05-16T01:14:32;14.07;;;12.57;;
7181;SDS011;3632;42.724;23.298;2023-05-16T01:17:13;13.83;;;12.43;;
7181;SDS011;3632;42.724;23.298;2023-05-16T01:19:56;13.90;;;12.50;;
7181;SDS011;3632;42.724;23.298;2023-05-16T01:22:34;14.27;;;12.83;;
7181;SDS011;3632;42.724;23.298;2023-05-16T01:25:16;14.60;;;13.10;;
7181;SDS011;3632;42.724;23.298;2023-05-16T01:27:56;15.20;;;12.00;;
7181;SDS011;3632;42.724;23.298;2023-05-16T01:30:25;14.23;;;12.80;;
7181;SDS011;3632;42.724;23.298;2023-05-16T01:32:52;13.87;;;12.57;;
7181;SDS011;3632;42.724;23.298;2023-05-16T01:35:19;14.77;;;13.37;;
7181;SDS011;3632;42.724;23.298;2023-05-16T01:37:48;15.63;;;13.17;;
7181;SDS011;3632;42.724;23.298;2023-05-16T01:40:22;14.03;;;12.63;;
7181;SDS011;3632;42.724;23.298;2023-05-16T01:42:59;13.37;;;11.97;;
7181;SDS011;3632;42.724;23.298;2023-05-16T01:45:31;14.60;;;13.00;;
7181;SDS011;3632;42.724;23.298;2023-05-16T01:48:09;16.33;;;12.30;;
7181;SDS011;3632;42.724;23.298;2023-05-16T01:50:45;14.57;;;12.43;;
7181;SDS011;3632;42.724;23.298;2023-05-16T01:53:18;14.00;;;12.60;;
7181;SDS011;3632;42.724;23.298;2023-05-16T01:55:52;14.53;;;13.00;;
7181;SDS011;3632;42.724;23.298;2023-05-16T01:58:32;13.87;;;12.50;;
7181;SDS011;3632;42.724;23.298;2023-05-16T02:01:06;13.90;;;12.50;;
7181;SDS011;3632;42.724;23.298;2023-05-16T02:03:33;13.53;;;12.33;;
7181;SDS011;3632;42.724;23.298;2023-05-16T02:06:01;14.80;;;13.23;;
7181;SDS011;3632;42.724;23.298;2023-05-16T02:08:29;17.00;;;12.57;;
7181;SDS011;3632;42.724;23.298;2023-05-16T02:11:00;14.33;;;12.57;;
7181;SDS011;3632;42.724;23.298;2023-05-16T02:13:28;16.67;;;11.50;;
7181;SDS011;3632;42.724;23.298;2023-05-16T02:16:00;13.83;;;12.23;;
7181;SDS011;3632;42.724;23.298;2023-05-16T02:18:28;13.47;;;11.60;;
7181;SDS011;3632;42.724;23.298;2023-05-16T02:20:56;12.27;;;11.07;;
7181;SDS011;3632;42.724;23.298;2023-05-16T02:23:28;13.17;;;11.03;;
7181;SDS011;3632;42.724;23.298;2023-05-16T02:25:56;14.17;;;11.73;;
7181;SDS011;3632;42.724;23.298;2023-05-16T02:28:23;12.67;;;11.33;;
7181;SDS011;3632;42.724;23.298;2023-05-16T02:30:57;14.67;;;11.57;;
7181;SDS011;3632;42.724;23.298;2023-05-16T02:33:26;12.20;;;11.00;;
7181;SDS011;3632;42.724;23.298;2023-05-16T02:35:54;13.13;;;11.37;;
7181;SDS011;3632;42.724;23.298;2023-05-16T02:38:22;14.37;;;11.67;;
7181;SDS011;3632;42.724;23.298;2023-05-16T02:40:49;13.60;;;11.77;;
7181;SDS011;3632;42.724;23.298;2023-05-16T02:43:17;12.87;;;10.80;;
7181;SDS011;3632;42.724;23.298;2023-05-16T02:45:44;12.93;;;11.60;;
7181;SDS011;3632;42.724;23.298;2023-05-16T02:48:12;12.67;;;11.47;;
7181;SDS011;3632;42.724;23.298;2023-05-16T02:50:41;13.30;;;11.77;;
7181;SDS011;3632;42.724;23.298;2023-05-16T02:53:08;14.97;;;11.87;;
7181;SDS011;3632;42.724;23.298;2023-05-16T02:55:36;13.13;;;11.80;;
7181;SDS011;3632;42.724;23.298;2023-05-16T02:58:03;16.50;;;11.57;;
7181;SDS011;3632;42.724;23.298;2023-05-16T03:00:30;12.93;;;11.63;;
7181;SDS011;3632;42.724;23.298;2023-05-16T03:02:57;13.17;;;11.50;;
7181;SDS011;3632;42.724;23.298;2023-05-16T03:05:24;17.53;;;11.90;;
7181;SDS011;3632;42.724;23.298;2023-05-16T03:07:52;12.43;;;10.93;;
7181;SDS011;3632;42.724;23.298;2023-05-16T03:10:20;12.70;;;11.37;;
7181;SDS011;3632;42.724;23.298;2023-05-16T03:12:48;14.50;;;11.77;;
7181;SDS011;3632;42.724;23.298;2023-05-16T03:15:14;12.60;;;11.30;;
7181;SDS011;3632;42.724;23.298;2023-05-16T03:17:43;14.33;;;11.63;;
7181;SDS011;3632;42.724;23.298;2023-05-16T03:20:11;12.60;;;11.33;;
7181;SDS011;3632;42.724;23.298;2023-05-16T03:22:38;13.07;;;11.20;;
7181;SDS011;3632;42.724;23.298;2023-05-16T03:25:07;13.70;;;11.10;;
7181;SDS011;3632;42.724;23.298;2023-05-16T03:27:34;15.13;;;11.37;;
7181;SDS011;3632;42.724;23.298;2023-05-16T03:30:01;15.70;;;11.23;;
7181;SDS011;3632;42.724;23.298;2023-05-16T03:32:29;14.80;;;10.40;;
7181;SDS011;3632;42.724;23.298;2023-05-16T03:34:56;11.93;;;10.20;;
7181;SDS011;3632;42.724;23.298;2023-05-16T03:37:23;12.37;;;10.70;;
7181;SDS011;3632;42.724;23.298;2023-05-16T03:39:51;11.80;;;10.60;;
7181;SDS011;3632;42.724;23.298;2023-05-16T03:42:19;11.60;;;10.00;;
7181;SDS011;3632;42.724;23.298;2023-05-16T03:44:46;12.73;;;10.23;;
7181;SDS011;3632;42.724;23.298;2023-05-16T03:47:13;11.20;;;10.03;;
7181;SDS011;3632;42.724;23.298;2023-05-16T03:49:40;10.90;;;9.80;;
7181;SDS011;3632;42.724;23.298;2023-05-16T03:52:08;13.97;;;10.30;;
7181;SDS011;3632;42.724;23.298;2023-05-16T03:54:35;11.33;;;10.23;;
7181;SDS011;3632;42.724;23.298;2023-05-16T03:57:02;15.30;;;10.70;;
7181;SDS011;3632;42.724;23.298;2023-05-16T03:59:31;15.03;;;10.83;;
7181;SDS011;3632;42.724;23.298;2023-05-16T04:01:59;19.30;;;10.63;;
7181;SDS011;3632;42.724;23.298;2023-05-16T04:04:26;13.33;;;11.20;;
7181;SDS011;3632;42.724;23.298;2023-05-16T04:06:53;14.33;;;11.07;;
7181;SDS011;3632;42.724;23.298;2023-05-16T04:09:20;19.00;;;11.23;;
7181;SDS011;3632;42.724;23.298;2023-05-16T04:11:48;18.33;;;11.30;;
7181;SDS011;3632;42.724;23.298;2023-05-16T04:14:16;14.37;;;11.93;;
7181;SDS011;3632;42.724;23.298;2023-05-16T04:16:44;16.03;;;11.47;;
7181;SDS011;3632;42.724;23.298;2023-05-16T04:19:11;13.83;;;10.73;;
7181;SDS011;3632;42.724;23.298;2023-05-16T04:21:38;15.47;;;11.00;;
7181;SDS011;3632;42.724;23.298;2023-05-16T04:24:06;16.17;;;11.70;;
7181;SDS011;3632;42.724;23.298;2023-05-16T04:26:34;17.33;;;11.20;;
7181;SDS011;3632;42.724;23.298;2023-05-16T04:29:01;15.07;;;11.40;;
7181;SDS011;3632;42.724;23.298;2023-05-16T04:31:29;22.83;;;12.77;;
7181;SDS011;3632;42.724;23.298;2023-05-16T04:33:57;16.87;;;12.57;;
7181;SDS011;3632;42.724;23.298;2023-05-16T04:36:24;15.70;;;12.27;;
7181;SDS011;3632;42.724;23.298;2023-05-16T04:38:54;16.33;;;12.27;;
7181;SDS011;3632;42.724;23.298;2023-05-16T04:41:21;14.20;;;12.10;;
7181;SDS011;3632;42.724;23.298;2023-05-16T04:43:49;16.30;;;12.57;;
7181;SDS011;3632;42.724;23.298;2023-05-16T04:46:18;13.70;;;11.83;;
7181;SDS011;3632;42.724;23.298;2023-05-16T04:48:46;18.93;;;13.67;;
7181;SDS011;3632;42.724;23.298;2023-05-16T04:51:15;16.00;;;12.33;;
7181;SDS011;3632;42.724;23.298;2023-05-16T04:53:42;14.70;;;12.10;;
7181;SDS011;3632;42.724;23.298;2023-05-16T04:56:09;19.20;;;13.07;;
7181;SDS011;3632;42.724;23.298;2023-05-16T04:58:36;18.40;;;13.27;;
7181;SDS011;3632;42.724;23.298;2023-05-16T05:01:03;24.67;;;13.63;;
7181;SDS011;3632;42.724;23.298;2023-05-16T05:03:31;18.27;;;13.30;;
7181;SDS011;3632;42.724;23.298;2023-05-16T05:06:00;15.60;;;12.73;;
7181;SDS011;3632;42.724;23.298;2023-05-16T05:08:28;20.97;;;13.57;;
7181;SDS011;3632;42.724;23.298;2023-05-16T05:10:56;21.73;;;13.50;;
7181;SDS011;3632;42.724;23.298;2023-05-16T05:13:22;21.27;;;13.47;;
7181;SDS011;3632;42.724;23.298;2023-05-16T05:15:50;20.13;;;13.83;;
7181;SDS011;3632;42.724;23.298;2023-05-16T05:18:17;19.30;;;13.43;;
7181;SDS011;3632;42.724;23.298;2023-05-16T05:20:44;22.70;;;13.53;;
7181;SDS011;3632;42.724;23.298;2023-05-16T05:23:11;25.07;;;15.37;;
7181;SDS011;3632;42.724;23.298;2023-05-16T05:25:40;22.20;;;14.60;;
7181;SDS011;3632;42.724;23.298;2023-05-16T05:28:07;25.27;;;14.13;;
7181;SDS011;3632;42.724;23.298;2023-05-16T05:30:34;27.40;;;15.23;;
7181;SDS011;3632;42.724;23.298;2023-05-16T05:33:01;19.70;;;14.43;;
7181;SDS011;3632;42.724;23.298;2023-05-16T05:35:28;26.13;;;14.80;;
7181;SDS011;3632;42.724;23.298;2023-05-16T05:37:56;22.73;;;15.20;;
7181;SDS011;3632;42.724;23.298;2023-05-16T05:40:23;17.30;;;14.83;;
7181;SDS011;3632;42.724;23.298;2023-05-16T05:42:51;20.37;;;15.07;;
7181;SDS011;3632;42.724;23.298;2023-05-16T05:45:19;21.43;;;15.10;;
7181;SDS011;3632;42.724;23.298;2023-05-16T05:47:48;18.57;;;15.03;;
7181;SDS011;3632;42.724;23.298;2023-05-16T05:50:19;18.37;;;14.67;;
7181;SDS011;3632;42.724;23.298;2023-05-16T05:52:47;21.23;;;15.17;;
7181;SDS011;3632;42.724;23.298;2023-05-16T05:55:22;20.53;;;15.30;;
7181;SDS011;3632;42.724;23.298;2023-05-16T05:57:49;21.60;;;14.33;;
7181;SDS011;3632;42.724;23.298;2023-05-16T06:00:18;23.27;;;14.80;;
7181;SDS011;3632;42.724;23.298;2023-05-16T06:02:46;18.23;;;15.77;;
7181;SDS011;3632;42.724;23.298;2023-05-16T06:05:14;17.60;;;15.50;;
7181;SDS011;3632;42.724;23.298;2023-05-16T06:07:41;24.63;;;15.90;;
7181;SDS011;3632;42.724;23.298;2023-05-16T06:10:10;20.83;;;15.67;;
7181;SDS011;3632;42.724;23.298;2023-05-16T06:12:38;18.90;;;14.97;;
7181;SDS011;3632;42.724;23.298;2023-05-16T06:15:09;24.20;;;17.30;;
7181;SDS011;3632;42.724;23.298;2023-05-16T06:17:38;21.47;;;16.00;;
7181;SDS011;3632;42.724;23.298;2023-05-16T06:20:07;16.53;;;14.77;;
7181;SDS011;3632;42.724;23.298;2023-05-16T06:22:35;23.57;;;16.67;;
7181;SDS011;3632;42.724;23.298;2023-05-16T06:25:03;21.50;;;15.33;;
7181;SDS011;3632;42.724;23.298;2023-05-16T06:27:31;19.00;;;12.53;;
7181;SDS011;3632;42.724;23.298;2023-05-16T06:29:58;19.63;;;12.90;;
7181;SDS011;3632;42.724;23.298;2023-05-16T06:32:26;16.90;;;12.07;;
7181;SDS011;3632;42.724;23.298;2023-05-16T06:35:06;20.73;;;13.47;;
7181;SDS011;3632;42.724;23.298;2023-05-16T06:37:43;19.50;;;12.63;;
7181;SDS011;3632;42.724;23.298;2023-05-16T06:40:11;13.77;;;11.77;;
7181;SDS011;3632;42.724;23.298;2023-05-16T06:42:39;17.50;;;12.70;;
7181;SDS011;3632;42.724;23.298;2023-05-16T06:45:07;16.07;;;12.70;;
7181;SDS011;3632;42.724;23.298;2023-05-16T06:47:37;19.77;;;13.23;;
7181;SDS011;3632;42.724;23.298;2023-05-16T06:50:11;21.67;;;14.77;;
7181;SDS011;3632;42.724;23.298;2023-05-16T06:52:38;19.73;;;12.83;;
7181;SDS011;3632;42.724;23.298;2023-05-16T06:55:06;14.27;;;11.30;;
7181;SDS011;3632;42.724;23.298;2023-05-16T06:57:34;14.57;;;11.23;;
7181;SDS011;3632;42.724;23.298;2023-05-16T07:00:01;12.67;;;11.37;;
7181;SDS011;3632;42.724;23.298;2023-05-16T07:02:28;17.40;;;12.00;;
7181;SDS011;3632;42.724;23.298;2023-05-16T07:04:56;16.90;;;11.90;;
7181;SDS011;3632;42.724;23.298;2023-05-16T07:07:24;19.43;;;12.73;;
7181;SDS011;3632;42.724;23.298;2023-05-16T07:09:51;17.77;;;11.90;;
7181;SDS011;3632;42.724;23.298;2023-05-16T07:12:19;14.07;;;12.03;;
7181;SDS011;3632;42.724;23.298;2023-05-16T07:14:46;19.23;;;13.97;;
7181;SDS011;3632;42.724;23.298;2023-05-16T07:17:13;13.70;;;10.17;;
7181;SDS011;3632;42.724;23.298;2023-05-16T07:19:40;17.47;;;13.60;;
7181;SDS011;3632;42.724;23.298;2023-05-16T07:22:07;26.13;;;15.67;;
7181;SDS011;3632;42.724;23.298;2023-05-16T07:24:36;17.13;;;12.50;;
7181;SDS011;3632;42.724;23.298;2023-05-16T07:27:03;16.03;;;10.87;;
7181;SDS011;3632;42.724;23.298;2023-05-16T07:29:30;14.93;;;11.67;;
7181;SDS011;3632;42.724;23.298;2023-05-16T07:31:57;19.63;;;13.30;;
7181;SDS011;3632;42.724;23.298;2023-05-16T07:34:24;12.77;;;11.30;;
7181;SDS011;3632;42.724;23.298;2023-05-16T07:36:50;18.43;;;11.23;;
7181;SDS011;3632;42.724;23.298;2023-05-16T07:39:18;15.27;;;11.47;;
7181;SDS011;3632;42.724;23.298;2023-05-16T07:41:46;17.43;;;12.07;;
7181;SDS011;3632;42.724;23.298;2023-05-16T07:44:13;17.40;;;10.87;;
7181;SDS011;3632;42.724;23.298;2023-05-16T07:46:39;18.37;;;11.20;;
7181;SDS011;3632;42.724;23.298;2023-05-16T07:49:08;16.50;;;9.60;;
7181;SDS011;3632;42.724;23.298;2023-05-16T07:51:35;22.67;;;15.57;;
7181;SDS011;3632;42.724;23.298;2023-05-16T07:54:02;16.23;;;13.10;;
7181;SDS011;3632;42.724;23.298;2023-05-16T07:56:29;21.43;;;10.80;;
7181;SDS011;3632;42.724;23.298;2023-05-16T07:58:58;13.33;;;10.10;;
7181;SDS011;3632;42.724;23.298;2023-05-16T08:01:25;17.67;;;12.47;;
7181;SDS011;3632;42.724;23.298;2023-05-16T08:03:53;20.37;;;12.03;;
7181;SDS011;3632;42.724;23.298;2023-05-16T08:06:20;15.70;;;9.87;;
7181;SDS011;3632;42.724;23.298;2023-05-16T08:08:46;13.30;;;10.50;;
7181;SDS011;3632;42.724;23.298;2023-05-16T08:11:13;14.70;;;10.20;;
7181;SDS011;3632;42.724;23.298;2023-05-16T08:13:40;12.47;;;9.70;;
7181;SDS011;3632;42.724;23.298;2023-05-16T08:16:08;15.50;;;10.73;;
7181;SDS011;3632;42.724;23.298;2023-05-16T08:18:35;16.43;;;9.57;;
7181;SDS011;3632;42.724;23.298;2023-05-16T08:21:02;15.63;;;9.03;;
7181;SDS011;3632;42.724;23.298;2023-05-16T08:23:29;12.33;;;8.67;;
7181;SDS011;3632;42.724;23.298;2023-05-16T08:25:56;13.53;;;9.37;;
7181;SDS011;3632;42.724;23.298;2023-05-16T08:28:23;13.93;;;9.83;;
7181;SDS011;3632;42.724;23.298;2023-05-16T08:30:50;14.23;;;9.70;;
7181;SDS011;3632;42.724;23.298;2023-05-16T08:33:18;17.73;;;11.80;;
7181;SDS011;3632;42.724;23.298;2023-05-16T08:35:45;22.30;;;13.37;;
7181;SDS011;3632;42.724;23.298;2023-05-16T08:38:12;17.87;;;10.67;;
7181;SDS011;3632;42.724;23.298;2023-05-16T08:40:39;14.00;;;11.00;;
7181;SDS011;3632;42.724;23.298;2023-05-16T08:43:08;19.60;;;11.07;;
7181;SDS011;3632;42.724;23.298;2023-05-16T08:45:35;15.83;;;9.50;;
7181;SDS011;3632;42.724;23.298;2023-05-16T08:48:03;15.67;;;10.97;;
7181;SDS011;3632;42.724;23.298;2023-05-16T08:50:32;17.07;;;9.60;;
7181;SDS011;3632;42.724;23.298;2023-05-16T08:53:02;13.67;;;9.17;;
7181;SDS011;3632;42.724;23.298;2023-05-16T08:55:32;14.90;;;10.80;;
7181;SDS011;3632;42.724;23.298;2023-05-16T08:57:59;20.30;;;14.13;;
7181;SDS011;3632;42.724;23.298;2023-05-16T09:00:27;14.17;;;9.40;;
7181;SDS011;3632;42.724;23.298;2023-05-16T09:02:55;12.47;;;10.57;;
7181;SDS011;3632;42.724;23.298;2023-05-16T09:05:22;16.17;;;9.50;;
7181;SDS011;3632;42.724;23.298;2023-05-16T09:07:51;16.90;;;12.87;;
7181;SDS011;3632;42.724;23.298;2023-05-16T09:10:18;15.90;;;10.33;;
7181;SDS011;3632;42.724;23.298;2023-05-16T09:12:46;22.33;;;16.63;;
7181;SDS011;3632;42.724;23.298;2023-05-16T09:15:13;14.77;;;9.97;;
7181;SDS011;3632;42.724;23.298;2023-05-16T09:17:41;14.17;;;10.20;;
7181;SDS011;3632;42.724;23.298;2023-05-16T09:20:10;16.43;;;9.43;;
7181;SDS011;3632;42.724;23.298;2023-05-16T09:22:38;17.13;;;8.77;;
7181;SDS011;3632;42.724;23.298;2023-05-16T09:25:08;10.90;;;8.30;;
7181;SDS011;3632;42.724;23.298;2023-05-16T09:27:41;11.20;;;9.47;;
7181;SDS011;3632;42.724;23.298;2023-05-16T09:30:08;18.47;;;11.80;;
7181;SDS011;3632;42.724;23.298;2023-05-16T09:32:36;13.50;;;9.90;;
7181;SDS011;3632;42.724;23.298;2023-05-16T09:35:09;16.53;;;10.30;;
7181;SDS011;3632;42.724;23.298;2023-05-16T09:37:43;17.17;;;9.20;;
7181;SDS011;3632;42.724;23.298;2023-05-16T09:40:12;16.80;;;8.53;;
7181;SDS011;3632;42.724;23.298;2023-05-16T09:42:40;15.27;;;10.33;;
7181;SDS011;3632;42.724;23.298;2023-05-16T09:45:10;13.47;;;8.93;;
7181;SDS011;3632;42.724;23.298;2023-05-16T09:47:39;12.23;;;8.60;;
7181;SDS011;3632;42.724;23.298;2023-05-16T09:50:11;11.10;;;8.67;;
7181;SDS011;3632;42.724;23.298;2023-05-16T09:52:40;13.30;;;8.10;;
7181;SDS011;3632;42.724;23.298;2023-05-16T09:55:07;13.40;;;8.00;;
7181;SDS011;3632;42.724;23.298;2023-05-16T09:57:39;17.53;;;8.27;;
7181;SDS011;3632;42.724;23.298;2023-05-16T10:00:06;16.07;;;8.57;;
7181;SDS011;3632;42.724;23.298;2023-05-16T10:02:37;22.13;;;13.93;;
7181;SDS011;3632;42.724;23.298;2023-05-16T10:05:05;18.67;;;14.50;;
7181;SDS011;3632;42.724;23.298;2023-05-16T10:07:32;13.30;;;10.17;;
7181;SDS011;3632;42.724;23.298;2023-05-16T10:13:12;12.27;;;7.80;;
7181;SDS011;3632;42.724;23.298;2023-05-16T10:15:40;11.93;;;8.17;;
7181;SDS011;3632;42.724;23.298;2023-05-16T10:18:08;11.97;;;7.93;;
7181;SDS011;3632;42.724;23.298;2023-05-16T10:20:37;12.90;;;10.10;;
7181;SDS011;3632;42.724;23.298;2023-05-16T10:23:06;12.60;;;8.83;;
7181;SDS011;3632;42.724;23.298;2023-05-16T10:25:38;14.47;;;9.30;;
7181;SDS011;3632;42.724;23.298;2023-05-16T10:28:08;10.00;;;8.13;;
7181;SDS011;3632;42.724;23.298;2023-05-16T10:30:39;20.23;;;13.47;;
7181;SDS011;3632;42.724;23.298;2023-05-16T10:33:08;16.53;;;9.70;;
7181;SDS011;3632;42.724;23.298;2023-05-16T10:35:37;15.33;;;9.53;;
7181;SDS011;3632;42.724;23.298;2023-05-16T10:38:04;17.27;;;9.07;;
7181;SDS011;3632;42.724;23.298;2023-05-16T10:40:33;17.97;;;10.03;;
7181;SDS011;3632;42.724;23.298;2023-05-16T10:43:01;15.57;;;8.50;;
7181;SDS011;3632;42.724;23.298;2023-05-16T10:45:29;13.67;;;10.37;;
7181;SDS011;3632;42.724;23.298;2023-05-16T10:47:58;13.37;;;8.10;;
7181;SDS011;3632;42.724;23.298;2023-05-16T10:50:32;9.90;;;7.40;;
7181;SDS011;3632;42.724;23.298;2023-05-16T10:53:13;9.70;;;7.43;;
7181;SDS011;3632;42.724;23.298;2023-05-16T10:55:48;11.13;;;8.23;;
7181;SDS011;3632;42.724;23.298;2023-05-16T10:58:22;14.50;;;7.67;;
7181;SDS011;3632;42.724;23.298;2023-05-16T11:06:30;11.47;;;8.37;;
7181;SDS011;3632;42.724;23.298;2023-05-16T11:09:05;14.07;;;7.33;;
7181;SDS011;3632;42.724;23.298;2023-05-16T11:11:38;11.80;;;9.00;;
7181;SDS011;3632;42.724;23.298;2023-05-16T11:14:06;14.07;;;9.00;;
7181;SDS011;3632;42.724;23.298;2023-05-16T11:16:37;13.67;;;8.23;;
7181;SDS011;3632;42.724;23.298;2023-05-16T11:19:07;15.67;;;8.40;;
7181;SDS011;3632;42.724;23.298;2023-05-16T11:24:36;12.03;;;8.23;;
7181;SDS011;3632;42.724;23.298;2023-05-16T11:27:05;10.97;;;7.67;;
7181;SDS011;3632;42.724;23.298;2023-05-16T11:29:33;10.23;;;7.63;;
7181;SDS011;3632;42.724;23.298;2023-05-16T11:32:01;9.90;;;8.07;;
7181;SDS011;3632;42.724;23.298;2023-05-16T11:34:31;12.67;;;7.73;;
7181;SDS011;3632;42.724;23.298;2023-05-16T11:37:03;11.63;;;7.87;;
7181;SDS011;3632;42.724;23.298;2023-05-16T11:39:31;10.43;;;6.90;;
7181;SDS011;3632;42.724;23.298;2023-05-16T11:41:58;10.83;;;8.10;;
7181;SDS011;3632;42.724;23.298;2023-05-16T11:44:26;14.53;;;7.90;;
7181;SDS011;3632;42.724;23.298;2023-05-16T11:46:53;13.83;;;8.83;;
7181;SDS011;3632;42.724;23.298;2023-05-16T11:49:20;16.63;;;9.07;;
7181;SDS011;3632;42.724;23.298;2023-05-16T11:51:49;12.13;;;8.40;;
7181;SDS011;3632;42.724;23.298;2023-05-16T11:54:16;11.17;;;7.60;;
7181;SDS011;3632;42.724;23.298;2023-05-16T11:56:45;14.30;;;8.93;;
7181;SDS011;3632;42.724;23.298;2023-05-16T11:59:12;12.83;;;8.13;;
7181;SDS011;3632;42.724;23.298;2023-05-16T12:01:39;19.33;;;14.57;;
7181;SDS011;3632;42.724;23.298;2023-05-16T12:04:07;14.57;;;9.87;;
7181;SDS011;3632;42.724;23.298;2023-05-16T12:06:35;13.17;;;9.10;;
7181;SDS011;3632;42.724;23.298;2023-05-16T12:09:04;14.07;;;8.27;;
7181;SDS011;3632;42.724;23.298;2023-05-16T12:11:35;17.10;;;12.37;;
7181;SDS011;3632;42.724;23.298;2023-05-16T12:14:03;26.33;;;15.80;;
7181;SDS011;3632;42.724;23.298;2023-05-16T12:16:30;16.40;;;11.23;;
7181;SDS011;3632;42.724;23.298;2023-05-16T12:18:58;13.43;;;8.87;;
7181;SDS011;3632;42.724;23.298;2023-05-16T12:21:26;12.90;;;9.33;;
7181;SDS011;3632;42.724;23.298;2023-05-16T12:23:54;14.87;;;10.13;;
7181;SDS011;3632;42.724;23.298;2023-05-16T12:26:29;15.13;;;7.50;;
7181;SDS011;3632;42.724;23.298;2023-05-16T12:28:57;12.70;;;7.90;;
7181;SDS011;3632;42.724;23.298;2023-05-16T12:31:25;19.03;;;8.30;;
7181;SDS011;3632;42.724;23.298;2023-05-16T12:33:52;13.37;;;10.13;;
7181;SDS011;3632;42.724;23.298;2023-05-16T12:36:20;12.93;;;7.43;;
7181;SDS011;3632;42.724;23.298;2023-05-16T12:38:47;10.20;;;7.60;;
7181;SDS011;3632;42.724;23.298;2023-05-16T12:41:19;16.00;;;7.40;;
7181;SDS011;3632;42.724;23.298;2023-05-16T12:43:48;12.33;;;6.90;;
7181;SDS011;3632;42.724;23.298;2023-05-16T12:46:18;12.00;;;6.90;;
7181;SDS011;3632;42.724;23.298;2023-05-16T12:48:45;9.00;;;6.53;;
7181;SDS011;3632;42.724;23.298;2023-05-16T12:51:12;15.27;;;7.07;;
7181;SDS011;3632;42.724;23.298;2023-05-16T12:53:40;9.97;;;6.83;;
7181;SDS011;3632;42.724;23.298;2023-05-16T12:56:09;10.67;;;7.57;;
7181;SDS011;3632;42.724;23.298;2023-05-16T12:58:36;14.83;;;9.17;;
7181;SDS011;3632;42.724;23.298;2023-05-16T13:01:06;12.60;;;8.27;;
7181;SDS011;3632;42.724;23.298;2023-05-16T13:03:33;18.07;;;11.70;;
7181;SDS011;3632;42.724;23.298;2023-05-16T13:06:06;9.37;;;8.33;;
7181;SDS011;3632;42.724;23.298;2023-05-16T13:08:34;18.43;;;10.87;;
7181;SDS011;3632;42.724;23.298;2023-05-16T13:11:01;13.23;;;9.20;;
7181;SDS011;3632;42.724;23.298;2023-05-16T13:13:28;9.30;;;7.77;;
7181;SDS011;3632;42.724;23.298;2023-05-16T13:15:54;13.30;;;7.90;;
7181;SDS011;3632;42.724;23.298;2023-05-16T13:18:23;14.93;;;8.87;;
7181;SDS011;3632;42.724;23.298;2023-05-16T13:20:51;10.93;;;8.47;;
7181;SDS011;3632;42.724;23.298;2023-05-16T13:23:18;22.97;;;14.57;;
7181;SDS011;3632;42.724;23.298;2023-05-16T13:25:45;20.87;;;11.30;;
7181;SDS011;3632;42.724;23.298;2023-05-16T13:28:14;21.20;;;12.13;;
7181;SDS011;3632;42.724;23.298;2023-05-16T13:30:43;19.67;;;12.63;;
7181;SDS011;3632;42.724;23.298;2023-05-16T13:33:10;17.30;;;10.33;;
7181;SDS011;3632;42.724;23.298;2023-05-16T13:38:13;24.50;;;13.57;;
7181;SDS011;3632;42.724;23.298;2023-05-16T13:40:43;24.53;;;14.83;;
7181;SDS011;3632;42.724;23.298;2023-05-16T13:45:55;15.97;;;11.67;;
7181;SDS011;3632;42.724;23.298;2023-05-16T13:48:22;17.30;;;12.40;;
7181;SDS011;3632;42.724;23.298;2023-05-16T13:50:56;15.83;;;11.37;;
7181;SDS011;3632;42.724;23.298;2023-05-16T13:53:25;24.07;;;16.63;;
7181;SDS011;3632;42.724;23.298;2023-05-16T13:55:52;18.53;;;12.17;;
7181;SDS011;3632;42.724;23.298;2023-05-16T13:58:19;26.00;;;14.83;;
7181;SDS011;3632;42.724;23.298;2023-05-16T14:00:46;23.70;;;14.03;;
7181;SDS011;3632;42.724;23.298;2023-05-16T14:03:13;24.80;;;19.23;;
7181;SDS011;3632;42.724;23.298;2023-05-16T14:05:40;20.53;;;17.60;;
7181;SDS011;3632;42.724;23.298;2023-05-16T14:08:07;23.77;;;14.17;;
7181;SDS011;3632;42.724;23.298;2023-05-16T14:10:37;22.53;;;12.43;;
7181;SDS011;3632;42.724;23.298;2023-05-16T14:13:06;17.33;;;10.67;;
7181;SDS011;3632;42.724;23.298;2023-05-16T14:15:33;20.77;;;10.53;;
7181;SDS011;3632;42.724;23.298;2023-05-16T14:18:01;15.63;;;9.23;;
7181;SDS011;3632;42.724;23.298;2023-05-16T14:20:28;16.60;;;8.80;;
7181;SDS011;3632;42.724;23.298;2023-05-16T14:22:55;20.40;;;10.07;;
7181;SDS011;3632;42.724;23.298;2023-05-16T14:25:22;15.67;;;10.90;;
7181;SDS011;3632;42.724;23.298;2023-05-16T14:27:50;20.23;;;11.20;;
7181;SDS011;3632;42.724;23.298;2023-05-16T14:30:17;23.30;;;13.67;;
7181;SDS011;3632;42.724;23.298;2023-05-16T14:32:44;24.50;;;13.10;;
7181;SDS011;3632;42.724;23.298;2023-05-16T14:35:11;21.90;;;14.17;;
7181;SDS011;3632;42.724;23.298;2023-05-16T14:37:38;22.17;;;11.80;;
7181;SDS011;3632;42.724;23.298;2023-05-16T14:40:05;24.07;;;15.33;;
7181;SDS011;3632;42.724;23.298;2023-05-16T14:42:34;24.10;;;14.43;;
7181;SDS011;3632;42.724;23.298;2023-05-16T14:45:05;17.03;;;11.77;;
7181;SDS011;3632;42.724;23.298;2023-05-16T14:50:22;20.73;;;14.83;;
7181;SDS011;3632;42.724;23.298;2023-05-16T14:52:51;16.33;;;10.67;;
7181;SDS011;3632;42.724;23.298;2023-05-16T14:55:23;15.37;;;12.27;;
7181;SDS011;3632;42.724;23.298;2023-05-16T14:58:01;16.17;;;12.73;;
7181;SDS011;3632;42.724;23.298;2023-05-16T15:00:35;18.77;;;13.07;;
7181;SDS011;3632;42.724;23.298;2023-05-16T15:03:05;18.47;;;10.97;;
7181;SDS011;3632;42.724;23.298;2023-05-16T15:05:34;15.43;;;9.03;;